CDT,Max TemperatureF,Mean TemperatureF,Min TemperatureF,Max Dew PointF,MeanDew PointF,Min DewpointF,Max Humidity, Mean Humidity, Min Humidity, Max Sea Level PressureIn, Mean Sea Level PressureIn, Min Sea Level PressureIn, Max VisibilityMiles, Mean VisibilityMiles, Min VisibilityMiles, Max Wind SpeedMPH, Mean Wind SpeedMPH, Max Gust SpeedMPH,PrecipitationIn, CloudCover, Events, WindDirDegrees
2014-3-1,14,5,-5,3,-4,-12,83,74,64,30.63,30.41,30.24,10,6,1,21,15,25,0.00,8,Snow,18
2014-3-2,4,-2,-9,-9,-13,-17,79,63,46,30.72,30.66,30.61,10,10,10,17,9,21,0.00,3,,3
2014-3-3,30,11,-9,11,-1,-15,79,61,42,30.64,30.32,30.10,10,10,10,30,11,35,0.00,1,,179
2014-3-4,46,27,8,22,15,5,92,65,37,30.19,30.03,29.91,10,10,10,18,6,23,T,2,,77
2014-3-5,35,27,18,18,15,13,80,64,47,30.36,30.24,30.11,10,8,1,18,8,22,0.00,5,,29
2014-3-6,62,41,20,33,26,15,85,59,32,30.23,29.93,29.72,10,8,4,24,12,30,0.00,0,,167
2014-3-7,42,33,23,33,24,17,92,78,63,30.30,30.00,29.71,10,7,2,29,17,37,T,5,Snow,357
2014-3-8,49,31,12,27,18,10,92,67,41,30.41,30.33,30.23,10,10,9,15,5,19,0.00,0,,291
2014-3-9,75,52,29,29,23,18,85,49,12,30.20,29.95,29.81,10,10,10,25,10,32,0.00,0,,236
2014-3-10,75,54,33,31,27,23,70,44,17,29.87,29.75,29.56,10,10,9,18,5,23,0.00,0,,256
2014-3-11,44,34,24,37,31,21,86,71,55,30.24,29.83,29.47,10,10,9,30,16,42,T,6,Rain,3
2014-3-12,57,39,20,28,21,14,96,58,19,30.27,30.18,30.09,10,10,10,26,12,32,0.00,0,,304
2014-3-13,69,45,21,26,16,8,85,42,10,30.12,29.90,29.68,10,10,10,22,6,31,0.00,0,,244
2014-3-14,61,48,34,26,19,11,69,42,15,29.99,29.89,29.73,10,10,10,24,11,31,0.00,0,,303
2014-3-15,49,38,26,26,22,18,78,56,34,30.37,30.02,29.75,10,10,10,28,15,36,0.00,3,,5
2014-3-16,43,30,17,22,19,14,88,64,39,30.46,30.31,30.01,10,10,6,18,9,23,T,5,Snow,344
2014-3-17,71,51,30,26,23,19,63,41,18,29.97,29.54,29.28,10,10,9,26,11,31,0.00,0,,176
2014-3-18,50,41,31,31,28,25,92,65,38,30.00,29.63,29.30,10,6,0,35,20,45,0.01,7,Fog-Snow,354
2014-3-19,52,35,18,31,23,17,100,65,30,30.14,30.07,29.97,10,7,0,24,9,31,0.00,2,Fog,286
2014-3-20,64,40,16,26,17,11,91,52,13,30.05,29.91,29.77,10,9,2,15,5,20,0.00,0,,293
2014-3-21,53,40,27,28,24,14,78,50,22,30.32,30.05,29.75,10,10,10,33,19,41,0.00,2,,334
2014-3-22,28,19,10,20,13,5,73,58,42,30.51,30.41,30.29,10,10,10,21,12,26,0.00,8,,3
2014-3-23,37,20,3,,,,,,,,,,,,,21,,26,0.00,,,
2014-3-24,42,31,20,19,15,11,63,47,30,30.35,30.31,30.29,10,10,10,25,13,32,T,7,,322
2014-3-25,41,27,12,19,11,7,73,50,27,30.46,30.31,30.06,10,10,9,23,10,30,0.00,1,,297
2014-3-26,70,49,27,41,29,12,89,56,23,30.04,29.57,29.38,10,8,2,33,19,43,0.00,3,,170
2014-3-27,44,34,24,43,32,23,96,83,70,29.95,29.52,29.32,10,4,0,33,16,43,0.12,7,Fog-Rain-Snow,341
2014-3-28,44,32,20,25,22,18,92,71,49,30.32,30.13,29.96,10,10,7,22,6,27,0.00,4,,7
2014-3-29,64,41,18,30,23,17,96,60,24,30.32,30.18,29.94,10,7,0,29,13,35,0.00,3,Fog,195
2014-3-30,68,53,37,37,29,25,62,42,22,29.92,29.72,29.44,10,10,10,24,9,31,0.00,0,,162
2014-3-31,61,43,24,37,24,12,82,61,39,30.07,29.66,29.27,10,9,6,43,24,53,T,5,,294